Time,TemperatureF,DewpointF,PressureIn,WindDirection,WindDirectionDegrees,WindSpeedMPH,WindSpeedGustMPH,Humidity,HourlyPrecipIn,Conditions,Clouds,dailyrainin,SolarRadiationWatts/m^2,SoftwareType,DateUTC
2013-06-11 00:10:00,65.1,53.9,23.19,SSW,194,1.0,1.0,67,0.00,,,0.00,0,Wunderground v.1.15,2013-06-11 04:10:00,
2013-06-11 00:20:00,64.7,53.9,23.19,SW,214,1.0,1.0,68,0.00,,,0.00,0,Wunderground v.1.15,2013-06-11 04:20:00,
2013-06-11 00:40:00,64.2,54.2,23.19,SSW,198,1.0,1.0,70,0.00,,,0.00,0,Wunderground v.1.15,2013-06-11 04:40:00,
2013-06-11 00:50:00,63.9,54.7,23.19,South,182,2.0,2.0,72,0.00,,,0.00,0,Wunderground v.1.15,2013-06-11 04:50:00,
2013-06-11 01:10:00,63.1,55.4,23.19,South,175,2.0,2.0,76,0.00,,,0.00,0,Wunderground v.1.15,2013-06-11 05:10:00,
2013-06-11 01:20:00,62.3,55.7,23.19,South,185,1.0,1.0,79,0.00,,,0.00,0,Wunderground v.1.15,2013-06-11 05:20:00,
2013-06-11 01:40:00,61.7,56.1,23.19,South,185,0.0,0.0,82,0.00,,,0.00,0,Wunderground v.1.15,2013-06-11 05:40:00,
2013-06-11 01:50:00,61.4,56.2,23.18,South,185,0.0,0.0,83,0.00,,,0.00,0,Wunderground v.1.15,2013-06-11 05:50:00,
2013-06-11 02:10:00,61.1,56.2,23.18,South,185,0.0,0.0,84,0.04,,,0.02,0,Wunderground v.1.15,2013-06-11 06:10:00,
2013-06-11 02:20:00,60.8,56.3,23.18,South,185,0.0,1.0,85,0.04,,,0.02,0,Wunderground v.1.15,2013-06-11 06:20:00,
2013-06-11 02:31:00,60.4,56.5,23.18,South,185,0.0,0.0,87,0.00,,,0.02,0,Wunderground v.1.15,2013-06-11 06:31:00,
2013-06-11 02:40:00,60.3,56.7,23.18,SE,130,0.0,2.0,88,0.06,,,0.03,0,Wunderground v.1.15,2013-06-11 06:40:00,
2013-06-11 02:50:00,60.0,56.4,23.18,ESE,119,1.0,1.0,88,0.04,,,0.03,0,Wunderground v.1.15,2013-06-11 06:50:00,
2013-06-11 03:01:00,59.8,56.6,23.18,ESE,112,1.0,1.0,89,0.04,,,0.03,0,Wunderground v.1.15,2013-06-11 07:01:00,
2013-06-11 03:10:00,59.7,56.5,23.18,ESE,112,1.0,3.0,89,0.00,,,0.03,0,Wunderground v.1.15,2013-06-11 07:10:00,
2013-06-11 03:20:00,59.7,56.5,23.18,ESE,118,1.0,1.0,89,0.00,,,0.03,0,Wunderground v.1.15,2013-06-11 07:20:00,
2013-06-11 03:31:00,59.5,56.6,23.18,ESE,118,0.0,0.0,90,0.00,,,0.04,0,Wunderground v.1.15,2013-06-11 07:31:00,
2013-06-11 03:40:00,59.4,56.5,23.18,ESE,118,0.0,0.0,90,0.00,,,0.04,0,Wunderground v.1.15,2013-06-11 07:40:00,
2013-06-11 03:50:00,59.2,56.3,23.18,ESE,117,0.0,0.0,90,0.00,,,0.04,0,Wunderground v.1.15,2013-06-11 07:50:00,
2013-06-11 04:10:00,59.1,56.2,23.18,ESE,115,0.0,1.0,90,0.00,,,0.04,0,Wunderground v.1.15,2013-06-11 08:10:00,
2013-06-11 04:20:00,59.1,56.5,23.17,East,94,2.0,4.0,91,0.00,,,0.05,0,Wunderground v.1.15,2013-06-11 08:20:00,
2013-06-11 04:40:00,59.2,56.6,23.17,East,84,1.0,1.0,91,0.00,,,0.05,0,Wunderground v.1.15,2013-06-11 08:40:00,
2013-06-11 04:50:00,59.2,56.6,23.17,ESE,103,1.0,1.0,91,0.00,,,0.05,0,Wunderground v.1.15,2013-06-11 08:50:00,
2013-06-11 05:10:00,59.1,56.5,23.17,East,94,0.0,1.0,91,0.00,,,0.05,0,Wunderground v.1.15,2013-06-11 09:10:00,
2013-06-11 05:20:00,59.1,56.5,23.17,ESE,109,1.0,1.0,91,0.00,,,0.06,0,Wunderground v.1.15,2013-06-11 09:20:00,
2013-06-11 05:40:00,58.8,56.2,23.17,ENE,69,2.0,2.0,91,0.00,,,0.06,5,Wunderground v.1.15,2013-06-11 09:40:00,
2013-06-11 05:50:00,58.8,56.2,23.17,ENE,77,0.0,0.0,91,0.00,,,0.06,12,Wunderground v.1.15,2013-06-11 09:50:00,
2013-06-11 06:10:00,58.8,56.2,23.17,ENE,72,1.0,2.0,91,0.00,,,0.06,14,Wunderground v.1.15,2013-06-11 10:10:00,
2013-06-11 06:20:00,58.8,56.2,23.17,ENE,75,1.0,1.0,91,0.00,,,0.06,12,Wunderground v.1.15,2013-06-11 10:20:00,
2013-06-11 06:40:00,58.6,55.7,23.17,East,82,1.0,1.0,90,0.00,,,0.06,18,Wunderground v.1.15,2013-06-11 10:40:00,
2013-06-11 06:50:00,58.6,55.7,23.17,ESE,116,1.0,1.0,90,0.00,,,0.06,23,Wunderground v.1.15,2013-06-11 10:50:00,
2013-06-11 07:10:00,58.6,55.7,23.17,East,85,1.0,2.0,90,0.00,,,0.06,23,Wunderground v.1.15,2013-06-11 11:10:00,
2013-06-11 07:20:00,58.6,55.7,23.17,East,88,0.0,0.0,90,0.00,,,0.07,26,Wunderground v.1.15,2013-06-11 11:20:00,
2013-06-11 07:30:00,58.3,55.4,23.17,East,86,1.0,4.0,90,0.04,,,0.08,42,Wunderground v.1.15,2013-06-11 11:30:00,
2013-06-11 07:40:00,58.3,55.1,23.17,NE,39,2.0,3.0,89,0.04,,,0.08,56,Wunderground v.1.15,2013-06-11 11:40:00,
2013-06-11 07:50:00,58.2,54.7,23.17,East,81,2.0,2.0,88,0.00,,,0.08,46,Wunderground v.1.15,2013-06-11 11:50:00,
2013-06-11 08:10:00,57.9,54.4,23.17,ENE,63,2.0,3.0,88,0.00,,,0.08,44,Wunderground v.1.15,2013-06-11 12:10:00,
2013-06-11 08:20:00,57.7,54.2,23.17,SSE,149,2.0,2.0,88,0.00,,,0.08,46,Wunderground v.1.15,2013-06-11 12:20:00,
2013-06-11 08:40:00,57.2,54.0,23.16,East,95,4.0,4.0,89,0.05,,,0.09,33,Wunderground v.1.15,2013-06-11 12:40:00,
2013-06-11 08:50:00,56.9,53.7,23.16,ESE,121,4.0,6.0,89,0.04,,,0.09,30,Wunderground v.1.15,2013-06-11 12:50:00,
2013-06-11 09:10:00,56.6,53.4,23.16,East,97,4.0,4.0,89,0.00,,,0.09,35,Wunderground v.1.15,2013-06-11 13:10:00,
2013-06-11 09:20:00,56.6,53.4,23.16,NE,51,5.0,9.0,89,0.00,,,0.09,46,Wunderground v.1.15,2013-06-11 13:20:00,
2013-06-11 09:40:00,56.4,53.2,23.16,East,97,5.0,5.0,89,0.00,,,0.09,65,Wunderground v.1.15,2013-06-11 13:40:00,
2013-06-11 09:50:00,56.4,53.2,23.16,ESE,108,4.0,5.0,89,0.00,,,0.09,69,Wunderground v.1.15,2013-06-11 13:50:00,
2013-06-11 10:10:00,56.5,53.6,23.15,East,88,4.0,4.0,90,0.00,,,0.09,74,Wunderground v.1.15,2013-06-11 14:10:00,
2013-06-11 10:20:00,56.5,53.6,23.15,ESE,115,4.0,4.0,90,0.00,,,0.09,74,Wunderground v.1.15,2013-06-11 14:20:00,
2013-06-11 10:31:00,56.5,53.6,23.15,ENE,69,3.0,5.0,90,0.00,,,0.09,56,Wunderground v.1.15,2013-06-11 14:31:00,
2013-06-11 10:40:00,56.5,53.6,23.15,ENE,61,3.0,5.0,90,0.00,,,0.09,49,Wunderground v.1.15,2013-06-11 14:40:00,
2013-06-11 10:50:00,56.4,53.8,23.15,SE,135,3.0,4.0,91,0.00,,,0.09,42,Wunderground v.1.15,2013-06-11 14:50:00,
2013-06-11 11:00:00,56.4,53.8,23.15,East,86,2.0,2.0,91,0.00,,,0.09,33,Wunderground v.1.15,2013-06-11 15:00:00,
2013-06-11 11:10:00,56.4,53.8,23.15,SE,134,1.0,6.0,91,0.00,,,0.09,32,Wunderground v.1.15,2013-06-11 15:10:00,
2013-06-11 11:20:00,56.2,53.6,23.15,ESE,110,2.0,2.0,91,0.00,,,0.09,30,Wunderground v.1.15,2013-06-11 15:20:00,
2013-06-11 11:40:00,56.1,53.5,23.15,NE,44,2.0,12.0,91,0.00,,,0.09,32,Wunderground v.1.15,2013-06-11 15:40:00,
2013-06-11 11:50:00,55.9,53.0,23.15,East,79,4.0,4.0,90,0.00,,,0.09,33,Wunderground v.1.15,2013-06-11 15:50:00,
2013-06-11 12:10:00,55.9,53.3,23.15,NE,51,3.0,6.0,91,0.00,,,0.10,28,Wunderground v.1.15,2013-06-11 16:10:00,
2013-06-11 12:20:00,55.8,53.5,23.15,ESE,115,4.0,4.0,92,0.17,,,0.13,44,Wunderground v.1.15,2013-06-11 16:20:00,
2013-06-11 12:40:00,55.6,53.0,23.14,East,86,4.0,4.0,91,0.17,,,0.17,42,Wunderground v.1.15,2013-06-11 16:40:00,
2013-06-11 12:50:00,55.5,52.9,23.14,ESE,112,4.0,4.0,91,0.15,,,0.20,39,Wunderground v.1.15,2013-06-11 16:50:00,
2013-06-11 13:10:00,55.5,52.9,23.14,ENE,63,4.0,6.0,91,0.14,,,0.24,35,Wunderground v.1.15,2013-06-11 17:10:00,
2013-06-11 13:20:00,55.5,53.2,23.14,ENE,59,4.0,6.0,92,0.17,,,0.27,47,Wunderground v.1.15,2013-06-11 17:20:00,
2013-06-11 13:40:00,55.5,53.2,23.14,NE,40,5.0,5.0,92,0.27,,,0.31,42,Wunderground v.1.15,2013-06-11 17:40:00,
2013-06-11 13:50:00,55.5,53.2,23.14,East,88,4.0,7.0,92,0.16,,,0.34,63,Wunderground v.1.15,2013-06-11 17:50:00,
2013-06-11 14:10:00,55.5,53.2,23.14,NE,53,4.0,5.0,92,0.14,,,0.39,37,Wunderground v.1.15,2013-06-11 18:10:00,
2013-06-11 14:20:00,55.5,53.2,23.14,East,82,3.0,3.0,92,0.09,,,0.39,30,Wunderground v.1.15,2013-06-11 18:20:00,
2013-06-11 14:40:00,55.5,53.2,23.14,NE,35,4.0,4.0,92,0.07,,,0.43,44,Wunderground v.1.15,2013-06-11 18:40:00,
2013-06-11 14:50:00,55.6,53.3,23.14,ENE,59,4.0,4.0,92,0.06,,,0.43,35,Wunderground v.1.15,2013-06-11 18:50:00,
2013-06-11 15:10:00,55.8,53.5,23.14,ENE,66,3.0,7.0,92,0.00,,,0.43,65,Wunderground v.1.15,2013-06-11 19:10:00,
2013-06-11 15:20:00,55.8,53.5,23.14,ENE,67,5.0,5.0,92,0.14,,,0.45,84,Wunderground v.1.15,2013-06-11 19:20:00,
2013-06-11 15:40:00,55.8,53.5,23.14,ESE,107,4.0,4.0,92,0.07,,,0.47,67,Wunderground v.1.15,2013-06-11 19:40:00,
2013-06-11 15:50:00,55.9,53.9,23.14,East,96,4.0,4.0,93,0.06,,,0.49,67,Wunderground v.1.15,2013-06-11 19:50:00,
2013-06-11 16:10:00,55.9,53.9,23.14,ENE,69,4.0,4.0,93,0.04,,,0.50,63,Wunderground v.1.15,2013-06-11 20:10:00,
2013-06-11 16:20:00,55.9,53.9,23.14,East,89,5.0,5.0,93,0.07,,,0.50,53,Wunderground v.1.15,2013-06-11 20:20:00,
2013-06-11 16:40:00,55.9,53.9,23.14,ENE,74,4.0,6.0,93,0.06,,,0.52,58,Wunderground v.1.15,2013-06-11 20:40:00,
2013-06-11 16:50:00,55.8,53.8,23.13,ENE,62,5.0,5.0,93,0.18,,,0.54,56,Wunderground v.1.15,2013-06-11 20:50:00,
2013-06-11 17:10:00,55.8,53.8,23.13,ESE,103,4.0,7.0,93,0.19,,,0.58,63,Wunderground v.1.15,2013-06-11 21:10:00,
2013-06-11 17:20:00,55.6,53.6,23.13,East,84,5.0,5.0,93,0.31,,,0.61,40,Wunderground v.1.15,2013-06-11 21:20:00,
2013-06-11 17:40:00,55.3,53.0,23.13,NNE,31,5.0,6.0,92,0.13,,,0.65,54,Wunderground v.1.15,2013-06-11 21:40:00,
2013-06-11 17:50:00,55.2,52.9,23.13,East,82,6.0,6.0,92,0.13,,,0.66,76,Wunderground v.1.15,2013-06-11 21:50:00,
2013-06-11 18:01:00,55.0,52.7,23.13,ENE,69,4.0,5.0,92,0.07,,,0.67,62,Wunderground v.1.15,2013-06-11 22:01:00,
2013-06-11 18:10:00,54.9,52.6,23.13,ENE,71,5.0,5.0,92,0.08,,,0.68,46,Wunderground v.1.15,2013-06-11 22:10:00,
2013-06-11 18:20:00,55.0,52.7,23.13,ENE,78,4.0,4.0,92,0.04,,,0.68,37,Wunderground v.1.15,2013-06-11 22:20:00,
2013-06-11 18:31:00,55.0,52.7,23.13,East,101,5.0,5.0,92,0.04,,,0.69,42,Wunderground v.1.15,2013-06-11 22:31:00,
2013-06-11 18:40:00,55.0,52.7,23.13,ESE,118,5.0,5.0,92,0.05,,,0.69,37,Wunderground v.1.15,2013-06-11 22:40:00,
2013-06-11 18:50:00,55.2,52.9,23.13,ENE,76,3.0,5.0,92,0.04,,,0.70,23,Wunderground v.1.15,2013-06-11 22:50:00,
2013-06-11 19:01:00,55.2,52.9,23.13,ENE,57,5.0,6.0,92,0.04,,,0.70,21,Wunderground v.1.15,2013-06-11 23:01:00,
2013-06-11 19:10:00,55.2,52.9,23.13,ENE,63,4.0,4.0,92,0.04,,,0.71,16,Wunderground v.1.15,2013-06-11 23:10:00,
2013-06-11 19:20:00,55.3,52.7,23.13,ENE,71,6.0,6.0,91,0.05,,,0.72,14,Wunderground v.1.15,2013-06-11 23:20:00,
2013-06-11 19:40:00,55.5,53.2,23.13,ENE,64,6.0,7.0,92,0.09,,,0.73,9,Wunderground v.1.15,2013-06-11 23:40:00,
2013-06-11 19:50:00,55.3,52.7,23.13,ENE,68,7.0,10.0,91,0.07,,,0.75,5,Wunderground v.1.15,2013-06-11 23:50:00,
2013-06-11 20:10:00,55.3,52.7,23.14,ENE,67,3.0,3.0,91,0.08,,,0.76,0,Wunderground v.1.15,2013-06-12 00:10:00,
2013-06-11 20:20:00,55.5,53.2,23.14,ENE,57,5.0,5.0,92,0.08,,,0.77,0,Wunderground v.1.15,2013-06-12 00:20:00,
2013-06-11 20:31:00,55.5,53.2,23.14,ENE,62,7.0,8.0,92,0.10,,,0.79,0,Wunderground v.1.15,2013-06-12 00:31:00,
2013-06-11 20:40:00,55.5,53.2,23.14,ENE,66,7.0,7.0,92,0.08,,,0.80,0,Wunderground v.1.15,2013-06-12 00:40:00,
2013-06-11 20:50:00,55.5,53.2,23.14,NNE,22,7.0,7.0,92,0.18,,,0.82,0,Wunderground v.1.15,2013-06-12 00:50:00,
2013-06-11 21:10:00,55.3,53.0,23.14,ENE,62,6.0,6.0,92,0.07,,,0.83,0,Wunderground v.1.15,2013-06-12 01:10:00,
2013-06-11 21:20:00,55.3,53.0,23.14,ESE,105,5.0,9.0,92,0.05,,,0.84,0,Wunderground v.1.15,2013-06-12 01:20:00,
2013-06-11 21:40:00,55.6,53.3,23.14,NNE,22,7.0,7.0,92,0.04,,,0.85,0,Wunderground v.1.15,2013-06-12 01:40:00,
2013-06-11 21:50:00,55.6,53.3,23.14,NE,55,7.0,7.0,92,0.00,,,0.86,0,Wunderground v.1.15,2013-06-12 01:50:00,
2013-06-11 22:01:00,55.6,53.3,23.14,NE,40,7.0,7.0,92,0.08,,,0.87,0,Wunderground v.1.15,2013-06-12 02:01:00,
2013-06-11 22:10:00,55.6,53.3,23.14,ENE,62,6.0,7.0,92,0.04,,,0.87,0,Wunderground v.1.15,2013-06-12 02:10:00,
2013-06-11 22:21:00,55.5,53.2,23.14,NNE,26,6.0,6.0,92,0.00,,,0.87,0,Wunderground v.1.15,2013-06-12 02:21:00,
2013-06-11 22:40:00,55.5,53.2,23.14,ESE,112,7.0,7.0,92,0.04,,,0.88,0,Wunderground v.1.15,2013-06-12 02:40:00,
2013-06-11 22:50:00,55.5,53.2,23.14,ENE,78,6.0,6.0,92,0.00,,,0.88,0,Wunderground v.1.15,2013-06-12 02:50:00,
2013-06-11 23:10:00,55.6,53.0,23.14,ENE,60,6.0,7.0,91,0.00,,,0.89,0,Wunderground v.1.15,2013-06-12 03:10:00,
2013-06-11 23:20:00,55.8,53.2,23.14,ENE,69,6.0,7.0,91,0.00,,,0.89,0,Wunderground v.1.15,2013-06-12 03:20:00,
2013-06-11 23:40:00,55.8,52.9,23.14,ENE,60,7.0,8.0,90,0.00,,,0.90,0,Wunderground v.1.15,2013-06-12 03:40:00,
2013-06-11 23:50:00,55.8,52.9,23.14,ENE,59,6.0,6.0,90,0.00,,,0.90,0,Wunderground v.1.15,2013-06-12 03:50:00,